Pagrindinis puslapis
METAR-TAF:

METAR-TAF

Oro uostai :

Žemutinis Naugardas, Rusija

platuma: 56-19-48N, ilguma: 044-00E, Aukštis: 78 m

Dabartinis oras

Ataskaita buvo paskelbta 38 minutes, ne 14:30 UTC
Vėjas 8 kt iš Pietvakarių
Temperatūra 11°C
Drėgmė 94%
Slėgis 995 hPa
Matomumas 10 km arba daugiau
Su prošvaistėmis ne aukštis 1100 ft, Liūtiniai kamuoliniai debesys.
perkūnija, lietus

METAR: UWGG 161430Z 23004MPS 9999 -TSRA BKN011CB 11/10 Q0995 R18L/290050 NOSIG

Laikas: 18:08 (15:08 UTC)

Prognozė

Ataskaita buvo paskelbta 1 valandą ir 15 minutes, ne 13:53 UTC
Prognozė galioja nuo 16 metu 15 UTC su 17 metu 15 UTC
Vėjas 6 kt iš Pietų/Pietvakarių
Matomumas: 6000 m
Su prošvaistėmis ne aukštis 1500 ft
lietus
Laikinai
nuo 16 metu 15 UTC su 16 metu 18 UTC
Vėjas 12 kt iš Pietvakarių su gūsio iki 25 kt
Matomumas: 2000 m
Su prošvaistėmis ne aukštis 1100 ft, Liūtiniai kamuoliniai debesys.
perkūnija, lietus

TAF: UWGG 161353Z 1615/1715 21003MPS 6000 -RA BKN015 TX12/1615Z TN06/1703Z TEMPO 1615/1618 22006G13MPS 2000 TSRA BKN011CB

Orai ataskaitas ir orų prognozės (METAR, TAF).

turimą stotys yra geltonos ir raudonos taškus žemėlapyje.

Perkelti pele per norėdami pamatyti stoties vardą.

Tada spustelėkite, norėdami matyti oro stebėjimo ir prognozės.

Norėdami pakeisti žemėlapį: spustelėkite ant žalios mygtukų su juodo kryžiaus žemyn,; žalią mygtuką su brūkšneliu, jei norite nutolinti; arba žalių rodyklių gretimoms žemėlapius.


METAR-TAF: